createdAt,value
2018-04-23T00:01:26.173Z,3.8
2018-04-23T00:11:25.950Z,3.0
2018-04-23T00:21:26.113Z,3.4
2018-04-23T00:31:25.717Z,3.5
2018-04-23T00:41:27.017Z,3.2
2018-04-23T00:51:26.759Z,3.5
2018-04-23T01:01:26.383Z,3.5
2018-04-23T01:11:29.991Z,3.5
2018-04-23T01:21:25.743Z,3.7
2018-04-23T01:31:26.323Z,3.2
2018-04-23T01:41:25.976Z,3.8
2018-04-23T01:51:26.654Z,3.8
2018-04-23T02:01:26.866Z,3.5
2018-04-23T02:11:26.445Z,3.5
2018-04-23T02:21:27.636Z,3.6
2018-04-23T02:31:26.489Z,3.4
2018-04-23T02:41:26.106Z,3.4
2018-04-23T02:51:25.873Z,2.9
2018-04-23T03:01:27.038Z,3.1
2018-04-23T03:11:27.011Z,3.1
2018-04-23T03:21:26.499Z,3.3
2018-04-23T03:31:26.488Z,3.3
2018-04-23T03:41:26.139Z,3.4
2018-04-23T03:51:27.522Z,3.8
2018-04-23T04:01:26.338Z,3.3
2018-04-23T04:11:26.511Z,3.4
2018-04-23T04:21:29.424Z,3.9
2018-04-23T04:31:25.870Z,4.1
2018-04-23T04:41:26.771Z,4.0
2018-04-23T04:51:26.744Z,4.3
2018-04-23T05:01:28.647Z,4.4
2018-04-23T05:11:26.450Z,4.8
2018-04-23T05:21:26.782Z,5.9
2018-04-23T05:31:27.232Z,4.6
2018-04-23T05:41:29.515Z,5.3
2018-04-23T05:51:26.592Z,6.2
2018-04-23T06:01:26.749Z,7.9
2018-04-23T06:11:26.618Z,7.8
2018-04-23T06:21:26.355Z,8.5
2018-04-23T06:31:27.640Z,6.2
2018-04-23T06:41:28.426Z,6.7
2018-04-23T06:51:26.292Z,6.6
2018-04-23T07:01:27.980Z,7.7
2018-04-23T07:11:28.958Z,5.9
2018-04-23T07:21:25.979Z,5.4
2018-04-23T07:31:26.847Z,5.0
2018-04-23T07:41:27.015Z,4.7
2018-04-23T07:51:26.937Z,4.8
2018-04-23T08:01:26.730Z,4.7
2018-04-23T08:11:26.535Z,4.7
2018-04-23T08:21:27.227Z,4.1
2018-04-23T08:31:26.908Z,5.2
2018-04-23T08:41:26.988Z,11.5
2018-04-23T08:51:29.314Z,10.4
2018-04-23T09:01:26.428Z,7.4
2018-04-23T09:11:26.392Z,6.4
2018-04-23T09:21:26.019Z,3.9
2018-04-23T09:31:26.174Z,3.8
2018-04-23T09:41:27.536Z,4.5
2018-04-23T09:51:27.115Z,5.2
2018-04-23T10:01:25.605Z,3.9
2018-04-23T10:11:26.302Z,3.1
2018-04-23T10:21:25.907Z,2.9
2018-04-23T10:31:28.566Z,3.0
2018-04-23T10:41:25.550Z,2.9
2018-04-23T10:51:25.677Z,3.5
2018-04-23T11:01:26.041Z,3.9
2018-04-23T11:11:25.921Z,3.6
2018-04-23T11:21:26.010Z,4.3
2018-04-23T11:31:25.139Z,6.0
2018-04-23T11:41:24.923Z,4.2
2018-04-23T11:51:26.892Z,3.4
2018-04-23T12:01:25.746Z,3.9
2018-04-23T12:11:26.651Z,3.7
2018-04-23T12:21:25.850Z,3.7
2018-04-23T12:31:25.937Z,4.0
2018-04-23T12:41:25.014Z,4.1
2018-04-23T12:51:25.908Z,3.7
2018-04-23T13:01:26.119Z,3.7
2018-04-23T13:11:26.647Z,4.1
2018-04-23T13:21:26.608Z,4.6
2018-04-23T13:31:25.517Z,3.8
2018-04-23T13:41:26.730Z,5.2
2018-04-23T13:51:27.758Z,5.1
2018-04-23T14:01:26.758Z,5.1
2018-04-23T14:11:26.903Z,5.2
2018-04-23T14:21:28.104Z,5.5
2018-04-23T14:31:25.776Z,5.2
2018-04-23T14:41:26.853Z,6.4
2018-04-23T14:51:25.157Z,6.7
2018-04-23T15:01:25.533Z,6.0
2018-04-23T15:11:26.547Z,6.4
2018-04-23T15:21:25.959Z,6.6
2018-04-23T15:31:25.716Z,6.6
2018-04-23T15:41:27.736Z,7.0
2018-04-23T15:51:26.831Z,7.3
2018-04-23T16:01:27.057Z,6.7
2018-04-23T16:11:25.241Z,7.4
2018-04-23T16:21:25.377Z,6.7
2018-04-23T16:31:25.822Z,7.3
2018-04-23T16:41:26.786Z,6.6
2018-04-23T16:51:26.522Z,6.9
2018-04-23T17:01:25.555Z,6.4
2018-04-23T17:11:26.288Z,5.2
2018-04-23T17:21:26.191Z,5.6
2018-04-23T17:31:25.542Z,4.8
2018-04-23T17:41:27.160Z,4.6
2018-04-23T17:51:25.031Z,5.4
2018-04-23T18:01:25.953Z,5.7
2018-04-23T18:11:26.110Z,5.3
2018-04-23T18:21:26.973Z,7.9
2018-04-23T18:31:26.733Z,8.6
2018-04-23T18:41:25.795Z,9.3
2018-04-23T18:51:25.629Z,8.9
2018-04-23T19:01:27.498Z,10.0
2018-04-23T19:11:25.458Z,11.6
2018-04-23T19:21:26.629Z,13.9
2018-04-23T19:31:25.736Z,13.3
2018-04-23T19:41:26.667Z,13.5
2018-04-23T19:51:27.509Z,12.0
2018-04-23T20:01:26.885Z,11.7
2018-04-23T20:11:26.604Z,12.1
2018-04-23T20:21:25.653Z,11.8
2018-04-23T20:31:26.899Z,10.9
2018-04-23T20:41:28.251Z,9.7
2018-04-23T20:51:26.347Z,10.6
2018-04-23T21:01:27.224Z,10.8
2018-04-23T21:11:28.113Z,8.6
2018-04-23T21:21:26.828Z,9.5
2018-04-23T21:31:26.657Z,8.4
2018-04-23T21:41:26.640Z,7.1
2018-04-23T21:51:27.639Z,7.4
2018-04-23T22:01:26.618Z,7.1
2018-04-23T22:11:29.117Z,7.8
2018-04-23T22:21:26.349Z,8.2
2018-04-23T22:31:26.865Z,8.8
2018-04-23T22:41:27.427Z,9.5
2018-04-23T22:51:26.116Z,8.7
2018-04-23T23:01:26.691Z,9.3
2018-04-23T23:11:27.803Z,9.0
2018-04-23T23:21:25.847Z,8.6
2018-04-23T23:31:26.897Z,8.9
2018-04-23T23:41:27.138Z,8.9
2018-04-23T23:51:25.928Z,11.2
